createdAt,value
2024-03-07T00:03:54.912Z,27.30
2024-03-07T00:08:57.919Z,30.70
2024-03-07T00:14:00.909Z,27.05
2024-03-07T00:19:05.265Z,27.60
2024-03-07T00:24:08.347Z,28.92
2024-03-07T00:29:11.711Z,27.75
2024-03-07T00:34:24.493Z,28.58
2024-03-07T00:39:29.133Z,30.73
2024-03-07T00:44:32.305Z,29.55
2024-03-07T00:49:37.480Z,30.00
2024-03-07T00:54:40.459Z,31.58
2024-03-07T00:59:44.227Z,28.08
2024-03-07T01:04:49.636Z,31.30
2024-03-07T01:09:52.792Z,30.40
2024-03-07T01:14:55.933Z,32.90
2024-03-07T01:26:47.019Z,31.92
2024-03-07T01:31:50.297Z,34.88
2024-03-07T01:36:53.151Z,36.90
2024-03-07T01:41:57.984Z,33.70
2024-03-07T01:47:04.576Z,42.15
2024-03-07T01:52:08.182Z,34.33
2024-03-07T01:57:14.379Z,40.75
2024-03-07T02:02:17.370Z,39.83
2024-03-07T02:07:20.351Z,34.58
2024-03-07T02:12:25.478Z,33.25
2024-03-07T02:17:29.084Z,31.75
2024-03-07T02:22:33.366Z,37.83
2024-03-07T02:27:36.211Z,34.42
2024-03-07T02:32:39.598Z,36.72
2024-03-07T02:37:43.946Z,33.70
2024-03-07T02:42:46.808Z,38.58
2024-03-07T02:47:49.776Z,37.20
2024-03-07T02:52:54.483Z,37.13
2024-03-07T02:57:58.779Z,39.50
2024-03-07T03:03:01.751Z,37.17
2024-03-07T03:08:08.162Z,36.63
2024-03-07T03:13:11.214Z,38.10
2024-03-07T03:18:14.850Z,35.42
2024-03-07T03:23:21.432Z,34.47
2024-03-07T03:28:26.102Z,37.00
2024-03-07T03:33:29.124Z,36.15
2024-03-07T03:38:33.551Z,39.67
2024-03-07T03:43:36.586Z,40.13
2024-03-07T03:48:40.799Z,37.25
2024-03-07T03:53:45.519Z,39.22
2024-03-07T03:58:48.468Z,34.70
2024-03-07T04:03:51.823Z,36.17
2024-03-07T04:08:56.709Z,36.63
2024-03-07T04:13:59.764Z,37.22
2024-03-07T04:19:02.710Z,35.67
2024-03-07T04:24:07.296Z,37.47
2024-03-07T04:29:10.346Z,39.58
2024-03-07T04:34:13.333Z,39.03
2024-03-07T04:39:25.958Z,39.05
2024-03-07T04:44:29.073Z,36.85
2024-03-07T04:49:33.663Z,40.90
2024-03-07T04:54:38.291Z,35.72
2024-03-07T04:59:42.115Z,44.63
2024-03-07T05:04:45.193Z,35.92
2024-03-07T05:09:49.877Z,35.78
2024-03-07T05:14:53.062Z,36.03
2024-03-07T05:19:56.065Z,38.58
2024-03-07T05:25:00.735Z,39.80
2024-03-07T05:30:05.876Z,41.22
2024-03-07T05:35:12.340Z,43.45
2024-03-07T05:40:16.977Z,44.03
2024-03-07T05:45:20.216Z,43.92
2024-03-07T05:50:23.375Z,51.47
2024-03-07T05:55:27.895Z,47.70
2024-03-07T06:00:31.172Z,47.10
2024-03-07T06:05:34.221Z,42.63
2024-03-07T06:10:41.035Z,44.95
2024-03-07T06:15:47.083Z,46.28
2024-03-07T06:20:50.181Z,44.30
2024-03-07T06:25:55.514Z,47.30
2024-03-07T06:30:58.700Z,49.45
2024-03-07T06:36:02.246Z,40.97
2024-03-07T06:41:07.171Z,44.70
2024-03-07T06:46:10.832Z,43.67
2024-03-07T06:51:14.185Z,40.55
2024-03-07T06:56:19.708Z,42.90
2024-03-07T07:01:23.337Z,46.83
2024-03-07T07:06:27.250Z,42.42
2024-03-07T07:11:34.884Z,44.58
2024-03-07T07:16:42.279Z,39.92
2024-03-07T07:21:45.654Z,55.45
2024-03-07T07:26:50.482Z,61.30
2024-03-07T07:31:53.605Z,45.75
2024-03-07T07:36:56.604Z,34.50
2024-03-07T07:42:01.379Z,41.42
2024-03-07T07:47:05.014Z,32.55
2024-03-07T07:52:09.721Z,30.98
2024-03-07T07:57:14.226Z,34.78
2024-03-07T08:02:17.240Z,37.67
2024-03-07T08:07:20.941Z,39.90
2024-03-07T08:12:25.558Z,36.65
2024-03-07T08:17:29.115Z,42.05
2024-03-07T08:22:32.208Z,41.33
2024-03-07T08:27:36.573Z,43.30
2024-03-07T08:32:39.746Z,51.38
2024-03-07T08:37:43.937Z,48.20
2024-03-07T08:42:49.472Z,56.75
2024-03-07T08:47:55.555Z,56.60
2024-03-07T08:52:58.778Z,54.60
2024-03-07T08:58:03.092Z,56.53
2024-03-07T09:03:10.741Z,56.38
2024-03-07T09:08:14.846Z,59.63
2024-03-07T09:13:19.210Z,60.35
2024-03-07T09:18:23.938Z,59.47
2024-03-07T09:23:27.022Z,61.25
2024-03-07T09:28:31.338Z,65.55
2024-03-07T09:33:35.497Z,59.15
2024-03-07T09:38:38.506Z,54.92
2024-03-07T09:43:44.809Z,60.72
2024-03-07T09:48:48.739Z,62.25
2024-03-07T09:53:53.555Z,62.78
2024-03-07T09:59:00.356Z,58.47
2024-03-07T10:04:12.581Z,65.90
2024-03-07T10:09:15.641Z,65.45
2024-03-07T10:14:20.019Z,68.72
2024-03-07T10:19:23.277Z,71.40
2024-03-07T10:24:26.773Z,62.42
2024-03-07T10:29:31.303Z,61.13
2024-03-07T10:34:36.171Z,68.40
2024-03-07T10:39:39.143Z,64.22
2024-03-07T10:44:47.008Z,69.22
2024-03-07T10:50:01.812Z,61.38
2024-03-07T10:55:17.302Z,64.53
2024-03-07T11:00:37.632Z,67.55
2024-03-07T11:05:43.639Z,58.55
2024-03-07T11:10:48.440Z,54.60
2024-03-07T11:15:58.489Z,60.35
2024-03-07T11:21:01.634Z,56.63
2024-03-07T11:26:12.226Z,60.60
2024-03-07T11:31:17.881Z,52.00
2024-03-07T11:36:44.557Z,46.88
2024-03-07T11:41:49.340Z,47.08
2024-03-07T11:46:54.032Z,47.33
2024-03-07T11:51:57.019Z,54.70
2024-03-07T11:57:01.572Z,50.90
2024-03-07T12:02:06.272Z,50.92
2024-03-07T12:07:11.485Z,50.35
2024-03-07T12:12:14.713Z,46.95
2024-03-07T12:17:19.681Z,47.65
2024-03-07T12:22:26.387Z,54.92
2024-03-07T12:27:31.040Z,57.25
2024-03-07T12:32:35.900Z,49.05
2024-03-07T12:37:39.092Z,49.72
2024-03-07T12:42:44.453Z,44.50
2024-03-07T12:47:52.008Z,49.72
2024-03-07T12:52:56.385Z,46.08
2024-03-07T12:57:59.718Z,56.13
2024-03-07T13:03:04.410Z,52.92
2024-03-07T13:08:10.103Z,55.40
2024-03-07T13:13:13.316Z,52.90
2024-03-07T13:18:17.861Z,50.92
2024-03-07T13:23:21.314Z,49.65
2024-03-07T13:28:26.144Z,47.78
2024-03-07T13:33:30.871Z,51.33
2024-03-07T13:38:34.662Z,55.80
2024-03-07T13:43:38.840Z,47.63
2024-03-07T13:48:44.519Z,41.55
2024-03-07T13:53:52.093Z,46.65
2024-03-07T13:59:16.643Z,45.67
2024-03-07T14:04:47.986Z,52.63
2024-03-07T14:10:22.638Z,48.55
2024-03-07T14:15:57.925Z,44.30
2024-03-07T14:21:17.783Z,49.33
2024-03-07T14:26:52.219Z,46.00
2024-03-07T14:31:55.305Z,48.92
2024-03-07T14:37:11.538Z,48.45
2024-03-07T14:42:16.808Z,49.90
2024-03-07T14:47:22.577Z,47.33
2024-03-07T14:52:30.978Z,49.58
2024-03-07T14:57:33.968Z,45.65
2024-03-07T15:02:38.657Z,44.50
2024-03-07T15:07:43.148Z,48.75
2024-03-07T15:12:47.916Z,46.72
2024-03-07T15:17:51.463Z,44.13
2024-03-07T15:22:59.052Z,47.72
2024-03-07T15:28:02.612Z,45.10
2024-03-07T15:33:06.937Z,40.85
2024-03-07T15:38:12.279Z,36.95
2024-03-07T15:43:15.417Z,43.22
2024-03-07T15:48:21.825Z,37.85
2024-03-07T15:53:28.373Z,38.25
2024-03-07T15:58:31.694Z,42.35
2024-03-07T16:03:34.732Z,37.55
2024-03-07T16:08:40.556Z,34.25
2024-03-07T16:13:45.094Z,42.55
2024-03-07T16:18:48.128Z,41.30
2024-03-07T16:23:54.809Z,41.38
2024-03-07T16:28:57.854Z,38.13
2024-03-07T16:34:01.115Z,39.97
2024-03-07T16:39:13.084Z,36.72
2024-03-07T16:44:16.183Z,36.22
2024-03-07T16:49:19.303Z,43.30
2024-03-07T16:54:24.893Z,39.20
2024-03-07T16:59:27.933Z,39.08
2024-03-07T17:04:30.925Z,41.22
2024-03-07T17:09:35.486Z,43.42
2024-03-07T17:14:44.845Z,43.13
2024-03-07T17:19:48.731Z,45.15
2024-03-07T17:24:54.069Z,41.85
2024-03-07T17:29:57.432Z,41.60
2024-03-07T17:35:01.097Z,40.40
2024-03-07T17:40:06.386Z,37.45
2024-03-07T17:45:12.318Z,34.45
2024-03-07T17:50:20.506Z,38.22
2024-03-07T17:55:25.415Z,34.22
2024-03-07T18:00:28.858Z,38.25
2024-03-07T18:05:32.101Z,31.85
2024-03-07T18:10:37.148Z,31.65
2024-03-07T18:15:40.812Z,27.48
2024-03-07T18:20:45.978Z,32.30
2024-03-07T18:25:52.216Z,34.65
2024-03-07T18:31:01.081Z,34.65
2024-03-07T18:36:07.103Z,35.78
2024-03-07T18:41:13.114Z,35.92
2024-03-07T18:46:17.822Z,35.80
2024-03-07T18:51:24.167Z,34.42
2024-03-07T18:56:28.963Z,33.15
2024-03-07T19:01:33.106Z,31.00
2024-03-07T19:06:39.928Z,28.95
2024-03-07T19:11:49.298Z,31.50
2024-03-07T19:16:54.199Z,30.50
2024-03-07T19:21:57.373Z,28.23
2024-03-07T19:27:02.028Z,32.17
2024-03-07T19:32:05.549Z,28.30
2024-03-07T19:37:10.656Z,23.38
2024-03-07T19:42:15.123Z,26.25
2024-03-07T19:47:18.193Z,26.92
2024-03-07T19:52:21.408Z,28.65
2024-03-07T19:57:28.966Z,22.23
2024-03-07T20:02:34.826Z,29.15
2024-03-07T20:07:38.670Z,27.10
2024-03-07T20:12:44.562Z,28.88
2024-03-07T20:17:49.702Z,28.15
2024-03-07T20:22:54.668Z,30.73
2024-03-07T20:27:59.199Z,25.52
2024-03-07T20:33:02.553Z,33.97
2024-03-07T20:38:06.991Z,32.35
2024-03-07T20:43:12.046Z,30.85
2024-03-07T20:48:15.357Z,34.25
2024-03-07T20:53:18.591Z,26.52
2024-03-07T20:58:23.413Z,31.98
2024-03-07T21:03:28.486Z,36.08
2024-03-07T21:08:35.481Z,29.63
2024-03-07T21:13:41.956Z,27.85
2024-03-07T21:18:45.068Z,27.13
2024-03-07T21:23:49.049Z,26.17
2024-03-07T21:28:55.169Z,32.38
2024-03-07T21:33:58.770Z,28.27
2024-03-07T21:39:02.218Z,30.02
2024-03-07T21:44:10.005Z,30.52
2024-03-07T21:49:13.435Z,32.92
2024-03-07T21:54:18.477Z,31.50
2024-03-07T21:59:22.996Z,35.13
2024-03-07T22:04:26.372Z,35.30
2024-03-07T22:09:29.729Z,31.55
2024-03-07T22:14:35.324Z,31.88
2024-03-07T22:19:39.471Z,36.05
2024-03-07T22:24:46.461Z,30.27
2024-03-07T22:29:51.030Z,27.55
2024-03-07T22:34:55.337Z,30.38
2024-03-07T22:39:58.485Z,30.05
2024-03-07T22:45:03.335Z,32.33
2024-03-07T22:50:13.762Z,33.88
2024-03-07T22:55:26.461Z,29.98
2024-03-07T23:00:33.278Z,36.90
2024-03-07T23:05:36.690Z,33.67
2024-03-07T23:10:39.766Z,32.47
2024-03-07T23:15:44.433Z,35.38
2024-03-07T23:20:47.509Z,31.45
2024-03-07T23:25:50.716Z,35.92
2024-03-07T23:30:55.055Z,33.15
2024-03-07T23:35:58.024Z,32.28
2024-03-07T23:41:02.129Z,33.40
2024-03-07T23:46:06.646Z,36.83
2024-03-07T23:51:11.587Z,36.13
2024-03-07T23:56:14.667Z,34.15
